createdAt,value
2022-10-06T00:02:43.124Z,3.90
2022-10-06T00:05:31.030Z,4.20
2022-10-06T00:08:19.487Z,4.40
2022-10-06T00:11:07.476Z,5.00
2022-10-06T00:13:53.875Z,3.57
2022-10-06T00:16:40.264Z,4.03
2022-10-06T00:19:26.737Z,3.77
2022-10-06T00:22:13.023Z,4.13
2022-10-06T00:24:59.743Z,4.60
2022-10-06T00:27:48.154Z,4.20
2022-10-06T00:30:37.066Z,4.83
2022-10-06T00:33:24.196Z,4.40
2022-10-06T00:36:11.031Z,4.40
2022-10-06T00:38:57.442Z,4.77
2022-10-06T00:41:44.058Z,4.00
2022-10-06T00:44:30.252Z,3.90
2022-10-06T00:47:17.792Z,4.60
2022-10-06T00:50:04.693Z,4.30
2022-10-06T00:52:51.043Z,4.53
2022-10-06T00:55:37.870Z,4.10
2022-10-06T00:58:25.197Z,4.87
2022-10-06T01:01:13.088Z,4.37
2022-10-06T01:04:06.047Z,4.50
2022-10-06T01:06:56.690Z,4.10
2022-10-06T01:09:43.317Z,4.47
2022-10-06T01:12:33.444Z,4.13
2022-10-06T01:15:24.899Z,4.43
2022-10-06T01:18:15.268Z,4.47
2022-10-06T01:21:44.464Z,4.23
2022-10-06T01:24:30.855Z,4.40
2022-10-06T01:27:18.606Z,4.07
2022-10-06T01:30:08.652Z,5.23
2022-10-06T01:32:55.648Z,4.20
2022-10-06T01:35:47.301Z,5.00
2022-10-06T01:38:34.014Z,5.13
2022-10-06T01:41:24.826Z,4.10
2022-10-06T01:44:11.065Z,4.80
2022-10-06T01:46:57.570Z,3.47
2022-10-06T01:49:49.647Z,4.00
2022-10-06T01:52:36.757Z,5.47
2022-10-06T01:55:24.736Z,4.20
2022-10-06T01:58:11.855Z,4.77
2022-10-06T02:01:07.281Z,4.63
2022-10-06T02:03:55.361Z,4.47
2022-10-06T02:06:42.629Z,4.77
2022-10-06T02:09:29.087Z,4.60
2022-10-06T02:12:16.018Z,5.27
2022-10-06T02:15:03.035Z,4.97
2022-10-06T02:17:49.704Z,4.43
2022-10-06T02:20:36.234Z,4.50
2022-10-06T02:23:22.702Z,4.30
2022-10-06T02:26:09.930Z,4.13
2022-10-06T02:28:56.236Z,4.87
2022-10-06T02:31:44.005Z,4.70
2022-10-06T02:34:30.694Z,5.90
2022-10-06T02:37:17.819Z,3.80
2022-10-06T02:40:05.866Z,4.50
2022-10-06T02:42:52.884Z,3.83
2022-10-06T02:45:43.191Z,4.10
2022-10-06T02:48:31.183Z,4.03
2022-10-06T02:51:19.734Z,4.30
2022-10-06T02:54:06.122Z,4.57
2022-10-06T02:56:54.275Z,4.20
2022-10-06T02:59:40.894Z,4.47
2022-10-06T03:02:30.382Z,3.73
2022-10-06T03:05:18.957Z,3.80
2022-10-06T03:08:06.470Z,4.20
2022-10-06T03:10:58.593Z,4.20
2022-10-06T03:13:46.709Z,3.73
2022-10-06T03:16:39.222Z,4.40
2022-10-06T03:19:29.830Z,4.20
2022-10-06T03:22:16.511Z,4.70
2022-10-06T03:25:12.513Z,6.20
2022-10-06T03:27:59.220Z,5.03
2022-10-06T03:30:46.033Z,8.00
2022-10-06T03:33:34.700Z,5.93
2022-10-06T03:36:23.979Z,4.33
2022-10-06T03:39:10.289Z,4.60
2022-10-06T03:41:57.547Z,4.63
2022-10-06T03:44:44.656Z,4.60
2022-10-06T03:47:31.122Z,3.63
2022-10-06T03:50:18.289Z,3.87
2022-10-06T03:53:04.571Z,4.47
2022-10-06T03:56:06.883Z,3.30
2022-10-06T03:58:55.544Z,4.30
2022-10-06T04:01:45.370Z,3.50
2022-10-06T04:04:34.444Z,3.00
2022-10-06T04:07:26.540Z,4.43
2022-10-06T04:10:13.017Z,4.17
2022-10-06T04:12:59.511Z,4.10
2022-10-06T04:15:46.951Z,4.13
2022-10-06T04:18:33.449Z,4.00
2022-10-06T04:21:20.603Z,4.00
2022-10-06T04:24:08.368Z,3.70
2022-10-06T04:27:15.910Z,4.13
2022-10-06T04:30:04.948Z,4.10
2022-10-06T04:32:53.666Z,4.70
2022-10-06T04:35:39.905Z,3.60
2022-10-06T04:38:28.172Z,4.13
2022-10-06T04:41:18.382Z,4.27
2022-10-06T04:44:06.701Z,3.50
2022-10-06T04:46:53.125Z,3.17
2022-10-06T04:49:40.334Z,3.80
2022-10-06T04:52:27.947Z,3.43
2022-10-06T04:55:14.919Z,3.80
2022-10-06T04:58:01.688Z,4.43
2022-10-06T05:00:49.184Z,4.63
2022-10-06T05:03:35.668Z,4.40
2022-10-06T05:06:30.800Z,4.57
2022-10-06T05:09:18.007Z,5.30
2022-10-06T05:12:10.841Z,4.30
2022-10-06T05:14:58.306Z,4.60
2022-10-06T05:17:45.435Z,4.10
2022-10-06T05:20:32.053Z,3.93
2022-10-06T05:23:18.764Z,4.87
2022-10-06T05:26:07.409Z,3.57
2022-10-06T05:28:53.869Z,3.37
2022-10-06T05:31:43.052Z,3.20
2022-10-06T05:34:30.404Z,3.23
2022-10-06T05:37:16.977Z,3.50
2022-10-06T05:40:03.742Z,3.53
2022-10-06T05:42:50.544Z,3.73
2022-10-06T05:45:37.226Z,3.10
2022-10-06T05:48:24.445Z,2.70
2022-10-06T05:51:10.965Z,3.17
2022-10-06T05:53:59.756Z,2.97
2022-10-06T05:56:46.630Z,3.23
2022-10-06T05:59:32.845Z,3.30
2022-10-06T06:02:20.777Z,3.20
2022-10-06T06:05:07.577Z,2.67
2022-10-06T06:07:54.357Z,2.80
2022-10-06T06:10:41.267Z,2.80
2022-10-06T06:13:27.934Z,3.07
2022-10-06T06:16:22.485Z,3.50
2022-10-06T06:19:11.083Z,3.43
2022-10-06T06:21:59.254Z,3.30
2022-10-06T06:24:46.178Z,3.17
2022-10-06T06:27:33.842Z,3.60
2022-10-06T06:30:21.294Z,3.03
2022-10-06T06:33:08.289Z,2.67
2022-10-06T06:35:55.279Z,2.93
2022-10-06T06:38:43.448Z,2.80
2022-10-06T06:41:33.107Z,2.70
2022-10-06T06:44:25.993Z,2.93
2022-10-06T06:47:24.455Z,3.23
2022-10-06T06:50:13.963Z,2.47
2022-10-06T06:53:02.470Z,2.60
2022-10-06T06:55:51.217Z,2.60
2022-10-06T06:58:39.750Z,2.33
2022-10-06T07:01:26.627Z,2.43
2022-10-06T07:04:15.840Z,3.10
2022-10-06T07:07:02.883Z,2.30
2022-10-06T07:09:52.620Z,1.63
2022-10-06T07:12:43.291Z,2.10
2022-10-06T07:15:48.452Z,1.90
2022-10-06T07:18:55.113Z,1.73
2022-10-06T07:22:00.332Z,2.00
2022-10-06T07:25:06.099Z,1.60
2022-10-06T07:27:54.646Z,3.03
2022-10-06T07:30:54.605Z,2.03
2022-10-06T07:33:41.436Z,1.97
2022-10-06T07:36:28.681Z,1.93
2022-10-06T07:39:15.604Z,2.50
2022-10-06T07:42:06.205Z,1.60
2022-10-06T07:45:11.261Z,1.77
2022-10-06T07:48:01.174Z,1.70
2022-10-06T07:50:52.372Z,2.30
2022-10-06T07:53:50.130Z,2.00
2022-10-06T07:56:53.882Z,2.33
2022-10-06T07:59:41.560Z,1.70
2022-10-06T08:02:31.430Z,1.60
2022-10-06T08:05:22.207Z,1.80
2022-10-06T08:08:08.493Z,1.90
2022-10-06T08:10:56.568Z,1.70
2022-10-06T08:13:45.766Z,1.90
2022-10-06T08:16:32.135Z,1.57
2022-10-06T08:19:19.597Z,1.33
2022-10-06T08:22:06.333Z,1.60
2022-10-06T08:25:05.834Z,1.57
2022-10-06T08:27:56.071Z,1.40
2022-10-06T08:30:42.630Z,1.60
2022-10-06T08:33:29.261Z,1.60
2022-10-06T08:36:19.127Z,1.60
2022-10-06T08:39:07.152Z,1.50
2022-10-06T08:41:54.785Z,1.43
2022-10-06T08:44:48.822Z,1.37
2022-10-06T08:47:37.026Z,1.47
2022-10-06T08:50:27.430Z,1.30
2022-10-06T08:53:28.381Z,1.20
2022-10-06T08:56:22.617Z,1.13
2022-10-06T08:59:09.763Z,1.37
2022-10-06T09:01:56.296Z,1.40
2022-10-06T09:04:43.374Z,1.60
2022-10-06T09:07:58.250Z,1.43
2022-10-06T09:11:21.984Z,1.20
2022-10-06T09:14:33.206Z,1.30
2022-10-06T09:17:26.492Z,1.43
2022-10-06T09:20:20.727Z,1.27
2022-10-06T09:23:15.605Z,1.90
2022-10-06T09:26:03.343Z,1.80
2022-10-06T09:28:51.157Z,1.47
2022-10-06T09:31:42.179Z,1.40
2022-10-06T09:34:40.191Z,1.40
2022-10-06T09:37:27.669Z,1.50
2022-10-06T09:40:39.052Z,2.07
2022-10-06T09:43:28.883Z,1.07
2022-10-06T09:46:29.377Z,1.50
2022-10-06T09:49:21.646Z,1.27
2022-10-06T09:52:16.057Z,1.30
2022-10-06T09:55:19.283Z,1.20
2022-10-06T09:58:34.048Z,1.27
2022-10-06T10:01:25.150Z,1.20
2022-10-06T10:04:21.924Z,1.40
2022-10-06T10:07:24.230Z,1.17
2022-10-06T10:10:22.951Z,1.67
2022-10-06T10:13:26.199Z,1.40
2022-10-06T10:16:19.317Z,1.23
2022-10-06T10:19:06.127Z,1.20
2022-10-06T10:21:56.352Z,1.37
2022-10-06T10:25:21.652Z,1.20
2022-10-06T10:28:14.102Z,1.63
2022-10-06T10:31:03.955Z,1.30
2022-10-06T10:34:12.646Z,1.50
2022-10-06T10:37:14.953Z,2.13
2022-10-06T10:40:11.958Z,1.77
2022-10-06T10:43:22.806Z,2.67
2022-10-06T10:46:39.479Z,1.40
2022-10-06T10:49:28.691Z,1.83
2022-10-06T10:52:23.910Z,1.60
2022-10-06T10:55:39.388Z,2.17
2022-10-06T10:58:38.557Z,2.53
2022-10-06T11:01:43.520Z,2.03
2022-10-06T11:04:30.828Z,1.50
2022-10-06T11:07:26.481Z,1.33
2022-10-06T11:10:32.954Z,1.50
2022-10-06T11:13:46.285Z,1.40
2022-10-06T11:16:46.047Z,1.83
2022-10-06T11:20:08.128Z,1.60
2022-10-06T11:23:17.921Z,1.57
2022-10-06T11:26:20.982Z,1.47
2022-10-06T11:29:32.922Z,1.60
2022-10-06T11:32:25.100Z,2.10
2022-10-06T11:35:24.219Z,1.37
2022-10-06T11:38:29.346Z,1.27
2022-10-06T11:41:34.533Z,1.47
2022-10-06T11:44:45.839Z,1.80
2022-10-06T11:47:47.191Z,2.43
2022-10-06T11:50:46.806Z,1.30
2022-10-06T11:53:34.498Z,1.50
2022-10-06T11:56:20.646Z,1.30
2022-10-06T11:59:13.035Z,2.37
2022-10-06T12:01:59.576Z,1.40
2022-10-06T12:08:41.518Z,1.60
2022-10-06T12:11:42.731Z,1.47
2022-10-06T12:16:55.321Z,1.53
2022-10-06T12:18:22.630Z,1.43
2022-10-06T12:21:50.764Z,1.93
2022-10-06T12:24:43.727Z,1.47
2022-10-06T12:28:04.765Z,1.80
2022-10-06T12:31:19.614Z,1.77
2022-10-06T12:34:44.156Z,2.37
2022-10-06T12:37:39.829Z,1.50
2022-10-06T12:40:39.875Z,1.67
2022-10-06T12:43:29.682Z,1.73
2022-10-06T12:46:22.000Z,1.37
2022-10-06T12:49:36.947Z,1.80
2022-10-06T12:52:40.474Z,1.40
2022-10-06T12:56:05.085Z,1.70
2022-10-06T12:58:51.691Z,1.50
2022-10-06T13:01:38.364Z,1.80
2022-10-06T13:04:54.296Z,1.87
2022-10-06T13:07:58.280Z,1.50
2022-10-06T13:13:38.079Z,1.83
2022-10-06T13:16:29.098Z,1.60
2022-10-06T13:19:21.512Z,1.50
2022-10-06T13:22:12.762Z,1.57
2022-10-06T13:25:00.929Z,1.70
2022-10-06T13:27:55.102Z,1.93
2022-10-06T13:30:41.945Z,1.40
2022-10-06T13:33:43.004Z,1.53
2022-10-06T13:36:32.173Z,2.03
2022-10-06T13:39:24.568Z,1.83
2022-10-06T13:42:17.906Z,1.60
2022-10-06T13:45:06.883Z,1.50
2022-10-06T13:48:15.116Z,1.37
2022-10-06T13:51:03.407Z,1.40
2022-10-06T13:53:51.911Z,2.00
2022-10-06T13:56:39.978Z,1.37
2022-10-06T13:59:29.426Z,1.70
2022-10-06T14:02:18.725Z,1.70
2022-10-06T14:05:26.395Z,1.60
2022-10-06T14:08:12.833Z,1.50
2022-10-06T14:11:06.949Z,1.40
2022-10-06T14:13:57.989Z,2.07
2022-10-06T14:16:50.612Z,1.30
2022-10-06T14:19:40.674Z,2.00
2022-10-06T14:22:38.261Z,1.70
2022-10-06T14:25:25.202Z,1.83
2022-10-06T14:28:11.805Z,2.03
2022-10-06T14:30:58.311Z,1.53
2022-10-06T14:33:46.588Z,1.50
2022-10-06T14:36:36.754Z,1.20
2022-10-06T14:39:23.099Z,1.63
2022-10-06T14:42:11.184Z,1.10
2022-10-06T14:44:58.011Z,1.23
2022-10-06T14:47:46.372Z,1.10
2022-10-06T14:50:33.984Z,1.30
2022-10-06T14:53:20.211Z,1.20
2022-10-06T14:56:10.803Z,1.20
2022-10-06T14:59:00.605Z,1.50
2022-10-06T15:01:49.351Z,1.83
2022-10-06T15:04:35.743Z,1.50
2022-10-06T15:07:40.666Z,1.40
2022-10-06T15:10:27.384Z,1.20
2022-10-06T15:13:13.764Z,1.43
2022-10-06T15:16:00.062Z,1.20
2022-10-06T15:18:46.708Z,1.30
2022-10-06T15:21:34.177Z,1.00
2022-10-06T15:24:20.642Z,1.13
2022-10-06T15:27:25.636Z,3.73
2022-10-06T15:30:12.331Z,1.70
2022-10-06T15:33:01.689Z,1.43
2022-10-06T15:36:08.215Z,1.20
2022-10-06T15:38:58.385Z,3.97
2022-10-06T15:41:45.972Z,2.37
2022-10-06T15:44:34.246Z,1.40
2022-10-06T15:47:20.975Z,1.70
2022-10-06T15:50:07.908Z,2.37
2022-10-06T15:52:55.225Z,1.60
2022-10-06T15:55:41.640Z,8.03
2022-10-06T15:58:27.943Z,7.50
2022-10-06T16:01:34.801Z,3.93
2022-10-06T16:04:39.113Z,4.23
2022-10-06T16:07:25.668Z,4.30
2022-10-06T16:10:13.502Z,3.33
2022-10-06T16:13:00.226Z,3.73
2022-10-06T16:15:53.073Z,3.30
2022-10-06T16:18:39.826Z,2.30
2022-10-06T16:21:26.173Z,2.43
2022-10-06T16:24:12.527Z,1.47
2022-10-06T16:27:00.018Z,1.50
2022-10-06T16:29:46.710Z,1.67
2022-10-06T16:32:32.966Z,1.73
2022-10-06T16:35:20.362Z,2.67
2022-10-06T16:38:07.052Z,2.00
2022-10-06T16:41:05.751Z,1.60
2022-10-06T16:43:53.948Z,1.70
2022-10-06T16:46:40.697Z,1.97
2022-10-06T16:49:28.247Z,1.63
2022-10-06T16:52:14.629Z,1.90
2022-10-06T16:55:02.603Z,1.70
2022-10-06T16:57:55.678Z,1.50
2022-10-06T17:00:42.242Z,2.67
2022-10-06T17:03:29.135Z,1.70
2022-10-06T17:06:21.761Z,1.97
2022-10-06T17:09:14.287Z,3.00
2022-10-06T17:12:02.699Z,4.50
2022-10-06T17:14:49.238Z,2.87
2022-10-06T17:17:35.409Z,2.97
2022-10-06T17:20:22.464Z,3.33
2022-10-06T17:23:09.807Z,3.63
2022-10-06T17:26:21.039Z,3.00
2022-10-06T17:29:12.857Z,2.90
2022-10-06T17:32:00.412Z,3.20
2022-10-06T17:34:47.774Z,2.80
2022-10-06T17:37:34.031Z,3.17
2022-10-06T17:40:20.517Z,2.73
2022-10-06T17:43:06.814Z,2.40
2022-10-06T17:45:53.112Z,3.20
2022-10-06T17:48:41.856Z,2.50
2022-10-06T17:51:30.002Z,2.30
2022-10-06T17:54:20.016Z,2.87
2022-10-06T17:57:06.617Z,5.23
2022-10-06T17:59:52.891Z,5.00
2022-10-06T18:02:40.460Z,6.70
2022-10-06T18:05:32.148Z,5.50
2022-10-06T18:08:19.673Z,4.47
2022-10-06T18:11:25.087Z,6.00
2022-10-06T18:14:12.620Z,4.17
2022-10-06T18:17:01.639Z,2.80
2022-10-06T18:19:49.443Z,2.43
2022-10-06T18:22:36.211Z,2.77
2022-10-06T18:25:26.944Z,3.20
2022-10-06T18:28:13.778Z,3.30
2022-10-06T18:31:00.365Z,3.87
2022-10-06T18:36:54.691Z,3.60
2022-10-06T18:39:41.121Z,3.30
2022-10-06T18:42:28.020Z,3.90
2022-10-06T18:45:39.109Z,3.67
2022-10-06T18:48:44.643Z,3.63
2022-10-06T18:51:33.864Z,3.30
2022-10-06T18:54:23.892Z,2.93
2022-10-06T18:57:10.691Z,2.67
2022-10-06T18:59:56.961Z,3.13
2022-10-06T19:02:48.119Z,5.27
2022-10-06T19:05:35.172Z,6.20
2022-10-06T19:08:21.375Z,6.80
2022-10-06T19:11:26.695Z,5.53
2022-10-06T19:14:16.189Z,4.53
2022-10-06T19:17:06.689Z,4.63
2022-10-06T19:19:55.240Z,3.10
2022-10-06T19:22:43.385Z,3.07
2022-10-06T19:25:30.185Z,3.13
2022-10-06T19:28:16.755Z,2.70
2022-10-06T19:31:12.188Z,2.63
2022-10-06T19:34:00.646Z,3.27
2022-10-06T19:36:50.847Z,3.40
2022-10-06T19:39:42.652Z,4.10
2022-10-06T19:42:47.370Z,3.53
2022-10-06T19:45:33.772Z,3.90
2022-10-06T19:48:20.535Z,3.67
2022-10-06T19:51:12.198Z,3.70
2022-10-06T19:54:01.254Z,3.50
2022-10-06T19:56:47.816Z,3.60
2022-10-06T19:59:35.507Z,3.87
2022-10-06T20:02:22.287Z,3.90
2022-10-06T20:05:10.263Z,3.20
2022-10-06T20:07:56.518Z,3.87
2022-10-06T20:10:43.433Z,4.13
2022-10-06T20:13:33.183Z,3.83
2022-10-06T20:16:20.570Z,4.37
2022-10-06T20:19:08.176Z,4.20
2022-10-06T20:21:54.922Z,4.70
2022-10-06T20:24:41.300Z,5.10
2022-10-06T20:27:27.549Z,4.10
2022-10-06T20:30:13.804Z,4.60
2022-10-06T20:33:00.424Z,3.93
2022-10-06T20:35:46.863Z,4.50
2022-10-06T20:38:51.809Z,4.27
2022-10-06T20:41:39.202Z,4.10
2022-10-06T20:44:25.635Z,4.77
2022-10-06T20:47:13.289Z,3.50
2022-10-06T20:50:02.717Z,4.33
2022-10-06T20:52:49.044Z,3.73
2022-10-06T20:55:35.248Z,3.80
2022-10-06T20:58:21.479Z,3.50
2022-10-06T21:01:13.464Z,4.20
2022-10-06T21:04:00.159Z,3.43
2022-10-06T21:06:46.743Z,3.40
2022-10-06T21:09:33.162Z,3.50
2022-10-06T21:12:20.242Z,2.70
2022-10-06T21:15:10.172Z,4.47
2022-10-06T21:17:56.617Z,3.67
2022-10-06T21:20:46.202Z,3.27
2022-10-06T21:23:40.238Z,3.70
2022-10-06T21:26:27.895Z,3.80
2022-10-06T21:29:15.985Z,3.60
2022-10-06T21:32:03.096Z,3.43
2022-10-06T21:34:50.271Z,3.43
2022-10-06T21:37:37.201Z,3.73
2022-10-06T21:40:23.408Z,3.30
2022-10-06T21:43:09.691Z,3.70
2022-10-06T21:46:17.090Z,3.20
2022-10-06T21:49:04.928Z,3.50
2022-10-06T21:51:53.525Z,3.77
2022-10-06T21:54:40.090Z,3.47
2022-10-06T21:57:26.347Z,3.30
2022-10-06T22:00:13.303Z,3.63
2022-10-06T22:02:59.684Z,3.93
2022-10-06T22:05:46.351Z,3.50
2022-10-06T22:08:33.875Z,3.70
2022-10-06T22:11:24.267Z,4.03
2022-10-06T22:14:13.268Z,3.50
2022-10-06T22:16:59.574Z,4.10
2022-10-06T22:19:45.796Z,3.43
2022-10-06T22:22:32.247Z,3.87
2022-10-06T22:25:22.501Z,3.27
2022-10-06T22:28:09.083Z,3.10
2022-10-06T22:31:11.646Z,3.60
2022-10-06T22:34:00.075Z,3.60
2022-10-06T22:36:46.814Z,3.00
2022-10-06T22:39:34.133Z,2.93
2022-10-06T22:42:20.592Z,2.70
2022-10-06T22:45:07.024Z,3.30
2022-10-06T22:47:53.535Z,3.33
2022-10-06T22:50:39.750Z,3.27
2022-10-06T22:53:30.034Z,3.10
2022-10-06T22:56:16.625Z,3.10
2022-10-06T22:59:02.884Z,2.83
2022-10-06T23:01:49.418Z,3.23
2022-10-06T23:04:36.026Z,4.00
2022-10-06T23:07:22.222Z,2.83
2022-10-06T23:10:08.838Z,3.17
2022-10-06T23:12:57.208Z,4.30
2022-10-06T23:15:43.745Z,3.60
2022-10-06T23:18:29.851Z,3.53
2022-10-06T23:21:22.217Z,4.57
2022-10-06T23:24:08.987Z,3.37
2022-10-06T23:26:57.942Z,3.33
2022-10-06T23:29:44.564Z,3.57
2022-10-06T23:32:31.346Z,3.70
2022-10-06T23:35:18.846Z,3.77
2022-10-06T23:38:05.458Z,3.33
2022-10-06T23:40:51.872Z,2.80
2022-10-06T23:43:38.128Z,3.17
2022-10-06T23:46:24.318Z,3.20
2022-10-06T23:49:10.834Z,3.10
2022-10-06T23:51:57.521Z,3.80
2022-10-06T23:54:43.814Z,2.97
2022-10-06T23:57:30.219Z,3.07
